createdAt,value
2022-08-24T00:01:17.383Z,2.80
2022-08-24T00:04:02.885Z,3.50
2022-08-24T00:06:50.011Z,2.63
2022-08-24T00:09:35.989Z,3.42
2022-08-24T00:12:21.373Z,2.83
2022-08-24T00:15:09.099Z,2.90
2022-08-24T00:17:54.459Z,3.25
2022-08-24T00:20:44.996Z,2.95
2022-08-24T00:23:30.524Z,2.63
2022-08-24T00:26:16.469Z,2.72
2022-08-24T00:29:07.575Z,3.03
2022-08-24T00:31:53.349Z,3.15
2022-08-24T00:34:38.340Z,3.22
2022-08-24T00:37:24.853Z,3.05
2022-08-24T00:40:25.425Z,2.63
2022-08-24T00:43:11.227Z,3.00
2022-08-24T00:46:18.755Z,2.88
2022-08-24T00:49:20.036Z,3.40
2022-08-24T00:52:08.393Z,2.83
2022-08-24T00:55:01.430Z,3.28
2022-08-24T00:57:51.277Z,3.00
2022-08-24T01:00:46.343Z,2.90
2022-08-24T01:03:37.308Z,2.70
2022-08-24T01:06:22.659Z,2.67
2022-08-24T01:09:07.901Z,2.70
2022-08-24T01:11:56.620Z,3.10
2022-08-24T01:14:42.344Z,2.97
2022-08-24T01:17:46.785Z,3.03
2022-08-24T01:20:32.100Z,2.58
2022-08-24T01:23:37.483Z,3.00
2022-08-24T01:26:37.828Z,2.75
2022-08-24T01:29:27.693Z,3.80
2022-08-24T01:32:13.830Z,2.97
2022-08-24T01:34:59.290Z,2.70
2022-08-24T01:37:44.515Z,3.05
2022-08-24T01:40:36.415Z,3.40
2022-08-24T01:43:22.450Z,3.38
2022-08-24T01:46:07.716Z,3.13
2022-08-24T01:48:53.451Z,2.63
2022-08-24T01:51:38.518Z,2.60
2022-08-24T01:54:24.412Z,2.85
2022-08-24T01:57:10.584Z,2.80
2022-08-24T02:00:01.177Z,3.10
2022-08-24T02:02:47.253Z,2.83
2022-08-24T02:05:33.316Z,3.30
2022-08-24T02:08:18.776Z,2.83
2022-08-24T02:11:08.677Z,2.90
2022-08-24T02:13:54.243Z,3.28
2022-08-24T02:16:40.367Z,3.03
2022-08-24T02:19:27.147Z,3.45
2022-08-24T02:22:12.251Z,2.95
2022-08-24T02:24:57.691Z,3.53
2022-08-24T02:27:43.387Z,2.88
2022-08-24T02:30:30.403Z,3.22
2022-08-24T02:33:15.664Z,2.67
2022-08-24T02:36:01.768Z,3.22
2022-08-24T02:38:47.165Z,3.00
2022-08-24T02:41:32.592Z,3.30
2022-08-24T02:44:18.498Z,3.80
2022-08-24T02:47:04.143Z,3.47
2022-08-24T02:49:49.414Z,3.10
2022-08-24T02:52:37.114Z,3.58
2022-08-24T02:55:22.209Z,3.47
2022-08-24T02:58:10.264Z,3.53
2022-08-24T03:00:55.426Z,3.67
2022-08-24T03:03:41.252Z,4.28
2022-08-24T03:06:26.817Z,3.35
2022-08-24T03:09:12.299Z,3.55
2022-08-24T03:11:57.321Z,3.80
2022-08-24T03:14:42.851Z,3.53
2022-08-24T03:17:31.414Z,3.30
2022-08-24T03:20:20.058Z,3.40
2022-08-24T03:23:05.788Z,3.75
2022-08-24T03:25:54.492Z,3.15
2022-08-24T03:28:39.995Z,3.78
2022-08-24T03:31:25.632Z,4.32
2022-08-24T03:34:13.429Z,3.88
2022-08-24T03:36:58.443Z,3.97
2022-08-24T03:39:44.282Z,3.65
2022-08-24T03:42:29.370Z,4.68
2022-08-24T03:45:14.801Z,3.85
2022-08-24T03:48:00.383Z,3.67
2022-08-24T03:50:46.179Z,3.60
2022-08-24T03:53:31.482Z,3.97
2022-08-24T03:56:17.390Z,3.95
2022-08-24T03:59:02.471Z,3.90
2022-08-24T04:01:47.999Z,4.07
2022-08-24T04:04:33.311Z,4.00
2022-08-24T04:07:19.272Z,4.10
2022-08-24T04:10:04.934Z,3.67
2022-08-24T04:12:50.025Z,3.85
2022-08-24T04:15:42.040Z,4.38
2022-08-24T04:18:28.855Z,4.00
2022-08-24T04:21:26.041Z,3.78
2022-08-24T04:24:12.020Z,3.85
2022-08-24T04:26:57.015Z,4.07
2022-08-24T04:29:43.337Z,3.97
2022-08-24T04:32:28.270Z,4.18
2022-08-24T04:35:13.855Z,3.92
2022-08-24T04:37:59.104Z,3.75
2022-08-24T04:40:46.842Z,4.78
2022-08-24T04:43:32.688Z,3.88
2022-08-24T04:46:19.787Z,4.10
2022-08-24T04:49:05.180Z,4.38
2022-08-24T04:51:50.539Z,4.38
2022-08-24T04:54:35.811Z,3.72
2022-08-24T04:57:21.195Z,4.45
2022-08-24T05:00:09.529Z,3.92
2022-08-24T05:02:54.680Z,4.78
2022-08-24T05:05:41.954Z,4.10
2022-08-24T05:08:27.205Z,4.38
2022-08-24T05:11:14.017Z,3.85
2022-08-24T05:13:59.573Z,4.18
2022-08-24T05:16:45.854Z,4.40
2022-08-24T05:19:38.209Z,4.60
2022-08-24T05:22:23.637Z,4.70
2022-08-24T05:25:09.618Z,4.05
2022-08-24T05:27:54.921Z,5.22
2022-08-24T05:30:42.702Z,4.40
2022-08-24T05:33:28.568Z,4.57
2022-08-24T05:36:24.351Z,4.70
2022-08-24T05:39:14.087Z,4.35
2022-08-24T05:42:00.854Z,4.65
2022-08-24T05:44:46.220Z,4.38
2022-08-24T05:47:31.688Z,4.53
2022-08-24T05:50:19.630Z,4.68
2022-08-24T05:53:05.539Z,4.68
2022-08-24T05:55:51.384Z,5.25
2022-08-24T05:58:38.303Z,4.97
2022-08-24T06:01:26.057Z,5.10
2022-08-24T06:04:12.765Z,4.78
2022-08-24T06:06:58.899Z,5.28
2022-08-24T06:09:43.871Z,5.78
2022-08-24T06:12:29.175Z,5.28
2022-08-24T06:15:15.378Z,5.15
2022-08-24T06:18:01.811Z,5.32
2022-08-24T06:20:47.139Z,5.45
2022-08-24T06:23:34.047Z,5.60
2022-08-24T06:26:39.971Z,5.90
2022-08-24T06:29:25.374Z,5.75
2022-08-24T06:32:10.712Z,5.85
2022-08-24T06:34:57.453Z,6.20
2022-08-24T06:37:43.257Z,5.97
2022-08-24T06:40:28.362Z,6.07
2022-08-24T06:43:13.639Z,6.55
2022-08-24T06:45:59.360Z,6.18
2022-08-24T06:48:45.118Z,6.15
2022-08-24T06:51:31.981Z,5.80
2022-08-24T06:54:20.721Z,5.82
2022-08-24T06:57:06.812Z,5.90
2022-08-24T06:59:52.779Z,6.30
2022-08-24T07:02:38.372Z,6.03
2022-08-24T07:05:23.825Z,6.18
2022-08-24T07:08:09.288Z,5.78
2022-08-24T07:10:55.573Z,6.38
2022-08-24T07:13:41.737Z,6.28
2022-08-24T07:16:27.229Z,5.57
2022-08-24T07:19:13.367Z,5.63
2022-08-24T07:21:59.027Z,5.57
2022-08-24T07:24:44.143Z,5.72
2022-08-24T07:27:29.531Z,5.28
2022-08-24T07:30:27.109Z,4.88
2022-08-24T07:33:13.406Z,5.47
2022-08-24T07:35:59.451Z,5.18
2022-08-24T07:38:46.760Z,4.85
2022-08-24T07:42:10.946Z,4.53
2022-08-24T07:44:38.772Z,4.97
2022-08-24T07:47:43.817Z,5.03
2022-08-24T07:50:30.775Z,4.78
2022-08-24T07:53:20.681Z,4.38
2022-08-24T07:56:06.596Z,4.88
2022-08-24T07:58:54.422Z,4.57
2022-08-24T08:01:41.269Z,4.30
2022-08-24T08:04:26.720Z,4.03
2022-08-24T08:07:14.649Z,5.28
2022-08-24T08:10:01.932Z,4.32
2022-08-24T08:12:46.941Z,3.85
2022-08-24T08:15:32.635Z,3.97
2022-08-24T08:18:19.511Z,4.30
2022-08-24T08:21:05.685Z,3.88
2022-08-24T08:24:11.167Z,3.53
2022-08-24T08:26:57.773Z,4.13
2022-08-24T08:29:43.860Z,3.65
2022-08-24T08:32:29.068Z,3.80
2022-08-24T08:35:14.955Z,3.67
2022-08-24T08:38:00.951Z,3.67
2022-08-24T08:41:08.428Z,4.00
2022-08-24T08:44:01.666Z,3.78
2022-08-24T08:47:20.385Z,3.72
2022-08-24T08:50:19.975Z,3.70
2022-08-24T08:53:11.243Z,3.70
2022-08-24T08:56:26.213Z,3.45
2022-08-24T08:59:36.696Z,3.90
2022-08-24T09:02:49.731Z,3.45
2022-08-24T09:06:05.217Z,3.95
2022-08-24T09:09:00.037Z,4.25
2022-08-24T09:11:45.303Z,3.80
2022-08-24T09:14:39.979Z,3.83
2022-08-24T09:17:35.508Z,3.50
2022-08-24T09:20:38.469Z,3.60
2022-08-24T09:23:48.278Z,4.05
2022-08-24T09:26:58.397Z,3.30
2022-08-24T09:30:14.783Z,3.75
2022-08-24T09:33:42.978Z,3.53
2022-08-24T09:36:46.616Z,3.95
2022-08-24T09:40:01.234Z,3.38
2022-08-24T09:43:18.239Z,3.50
2022-08-24T09:46:21.429Z,3.08
2022-08-24T09:49:41.712Z,3.17
2022-08-24T09:52:49.129Z,3.58
2022-08-24T09:55:43.356Z,4.53
2022-08-24T09:58:57.487Z,3.22
2022-08-24T10:02:29.341Z,3.45
2022-08-24T10:05:42.679Z,3.45
2022-08-24T10:08:48.527Z,3.20
2022-08-24T10:11:58.706Z,3.75
2022-08-24T10:15:07.567Z,3.05
2022-08-24T10:18:18.605Z,4.15
2022-08-24T10:21:24.649Z,3.88
2022-08-24T10:24:56.380Z,3.08
2022-08-24T10:28:12.260Z,3.10
2022-08-24T10:31:09.660Z,3.65
2022-08-24T10:34:27.125Z,3.17
2022-08-24T10:37:24.248Z,3.28
2022-08-24T10:40:20.460Z,3.50
2022-08-24T10:43:36.668Z,3.80
2022-08-24T10:46:49.085Z,4.38
2022-08-24T10:49:37.039Z,3.15
2022-08-24T10:52:22.332Z,3.65
2022-08-24T10:55:27.379Z,3.63
2022-08-24T10:58:39.908Z,3.67
2022-08-24T11:01:37.315Z,3.92
2022-08-24T11:04:28.469Z,3.63
2022-08-24T11:07:21.725Z,3.60
2022-08-24T11:10:10.093Z,3.70
2022-08-24T11:12:55.940Z,3.50
2022-08-24T11:15:53.538Z,2.97
2022-08-24T11:18:55.469Z,3.22
2022-08-24T11:21:50.966Z,4.07
2022-08-24T11:24:45.996Z,2.85
2022-08-24T11:27:37.006Z,3.33
2022-08-24T11:30:25.796Z,3.30
2022-08-24T11:33:49.643Z,3.60
2022-08-24T11:36:38.492Z,3.53
2022-08-24T11:39:32.149Z,3.55
2022-08-24T11:42:45.015Z,2.85
2022-08-24T11:45:35.127Z,3.00
2022-08-24T11:48:47.854Z,3.53
2022-08-24T11:51:59.549Z,3.20
2022-08-24T11:54:56.701Z,3.33
2022-08-24T11:58:10.997Z,3.30
2022-08-24T12:01:08.326Z,4.22
2022-08-24T12:04:17.743Z,3.20
2022-08-24T12:07:09.498Z,2.90
2022-08-24T12:10:19.334Z,3.17
2022-08-24T12:13:09.114Z,2.83
2022-08-24T12:15:58.484Z,3.10
2022-08-24T12:19:06.942Z,3.17
2022-08-24T12:21:57.751Z,3.45
2022-08-24T12:24:50.617Z,3.38
2022-08-24T12:27:38.504Z,3.13
2022-08-24T12:30:24.320Z,3.45
2022-08-24T12:33:13.188Z,2.60
2022-08-24T12:36:04.371Z,2.88
2022-08-24T12:39:00.983Z,2.87
2022-08-24T12:42:07.672Z,2.88
2022-08-24T12:45:07.477Z,2.92
2022-08-24T12:48:10.563Z,2.88
2022-08-24T12:51:16.180Z,2.90
2022-08-24T12:54:38.963Z,2.70
2022-08-24T12:57:33.276Z,3.00
2022-08-24T13:00:32.516Z,2.80
2022-08-24T13:03:37.322Z,3.10
2022-08-24T13:06:36.107Z,2.80
2022-08-24T13:09:41.433Z,2.95
2022-08-24T13:12:41.913Z,2.50
2022-08-24T13:15:48.121Z,2.65
2022-08-24T13:18:50.610Z,2.92
2022-08-24T13:24:28.135Z,3.20
2022-08-24T13:27:13.505Z,3.53
2022-08-24T13:30:07.389Z,3.83
2022-08-24T13:33:05.447Z,3.53
2022-08-24T13:35:51.483Z,3.80
2022-08-24T13:38:51.676Z,3.80
2022-08-24T13:42:04.517Z,4.03
2022-08-24T13:45:07.995Z,3.63
2022-08-24T13:48:29.656Z,3.75
2022-08-24T13:51:49.660Z,3.93
2022-08-24T13:55:09.228Z,3.53
2022-08-24T13:58:23.686Z,3.45
2022-08-24T14:01:42.357Z,3.53
2022-08-24T14:04:42.458Z,3.63
2022-08-24T14:07:33.016Z,3.40
2022-08-24T14:10:30.179Z,3.83
2022-08-24T14:13:44.959Z,3.20
2022-08-24T14:17:00.103Z,3.20
2022-08-24T14:20:08.431Z,3.38
2022-08-24T14:23:15.305Z,3.20
2022-08-24T14:26:43.647Z,3.17
2022-08-24T14:29:34.940Z,3.72
2022-08-24T14:32:23.360Z,3.50
2022-08-24T14:35:22.960Z,4.43
2022-08-24T14:38:20.226Z,3.90
2022-08-24T14:41:08.505Z,3.97
2022-08-24T14:44:13.076Z,4.47
2022-08-24T14:47:13.751Z,4.13
2022-08-24T14:50:14.472Z,3.80
2022-08-24T14:53:08.441Z,4.20
2022-08-24T14:56:37.864Z,5.07
2022-08-24T14:59:41.981Z,4.90
2022-08-24T15:02:55.394Z,4.90
2022-08-24T15:06:03.884Z,5.00
2022-08-24T15:08:55.662Z,5.30
2022-08-24T15:11:42.541Z,4.82
2022-08-24T15:14:41.430Z,5.63
2022-08-24T15:17:54.379Z,4.85
2022-08-24T15:20:47.093Z,5.20
2022-08-24T15:24:10.372Z,5.60
2022-08-24T15:27:03.188Z,4.55
2022-08-24T15:29:58.195Z,5.20
2022-08-24T15:33:11.608Z,5.50
2022-08-24T15:36:15.669Z,5.13
2022-08-24T15:39:03.738Z,5.53
2022-08-24T15:41:49.506Z,5.55
2022-08-24T15:44:36.739Z,5.28
2022-08-24T15:47:48.626Z,5.82
2022-08-24T15:50:43.310Z,5.15
2022-08-24T15:53:33.424Z,5.38
2022-08-24T15:56:21.467Z,6.15
2022-08-24T15:59:13.441Z,5.70
2022-08-24T16:02:26.350Z,5.30
2022-08-24T16:05:38.359Z,6.30
2022-08-24T16:08:23.932Z,5.47
2022-08-24T16:11:27.404Z,4.93
2022-08-24T16:14:24.999Z,6.25
2022-08-24T16:17:31.641Z,6.05
2022-08-24T16:20:22.913Z,6.30
2022-08-24T16:23:12.706Z,6.18
2022-08-24T16:26:21.945Z,6.20
2022-08-24T16:29:07.373Z,6.40
2022-08-24T16:32:04.897Z,6.45
2022-08-24T16:35:13.065Z,6.22
2022-08-24T16:37:59.433Z,6.05
2022-08-24T16:40:44.812Z,6.47
2022-08-24T16:43:38.637Z,5.82
2022-08-24T16:46:25.604Z,5.70
2022-08-24T16:49:12.676Z,6.05
2022-08-24T16:51:58.227Z,5.63
2022-08-24T16:54:44.221Z,6.18
2022-08-24T16:57:32.103Z,5.72
2022-08-24T17:00:19.297Z,6.10
2022-08-24T17:03:04.489Z,5.97
2022-08-24T17:05:49.738Z,5.45
2022-08-24T17:08:35.068Z,6.45
2022-08-24T17:11:20.498Z,6.68
2022-08-24T17:14:06.963Z,6.43
2022-08-24T17:16:52.475Z,7.13
2022-08-24T17:19:38.933Z,7.10
2022-08-24T17:22:27.911Z,7.00
2022-08-24T17:25:13.473Z,7.13
2022-08-24T17:27:59.501Z,7.60
2022-08-24T17:30:49.709Z,6.85
2022-08-24T17:33:36.858Z,7.22
2022-08-24T17:36:23.941Z,7.18
2022-08-24T17:39:11.167Z,7.07
2022-08-24T17:41:58.425Z,7.60
2022-08-24T17:44:44.437Z,7.63
2022-08-24T17:47:29.616Z,7.07
2022-08-24T17:50:16.113Z,7.10
2022-08-24T17:53:01.876Z,7.13
2022-08-24T17:55:47.429Z,6.43
2022-08-24T17:58:32.729Z,5.95
2022-08-24T18:01:18.917Z,6.65
2022-08-24T18:04:04.571Z,7.28
2022-08-24T18:06:49.995Z,6.72
2022-08-24T18:09:37.438Z,7.00
2022-08-24T18:12:25.256Z,7.00
2022-08-24T18:15:10.800Z,6.90
2022-08-24T18:17:56.849Z,6.25
2022-08-24T18:20:42.385Z,7.15
2022-08-24T18:23:27.488Z,6.18
2022-08-24T18:26:15.560Z,7.00
2022-08-24T18:29:12.764Z,6.68
2022-08-24T18:32:00.000Z,7.00
2022-08-24T18:34:46.400Z,6.65
2022-08-24T18:37:32.440Z,6.93
2022-08-24T18:40:21.383Z,6.43
2022-08-24T18:43:08.240Z,6.32
2022-08-24T18:45:54.028Z,7.22
2022-08-24T18:48:39.381Z,6.88
2022-08-24T18:51:28.132Z,6.78
2022-08-24T18:54:23.956Z,6.68
2022-08-24T18:57:09.442Z,6.82
2022-08-24T18:59:54.941Z,6.55
2022-08-24T19:02:40.730Z,6.15
2022-08-24T19:05:26.304Z,6.95
2022-08-24T19:08:11.592Z,7.40
2022-08-24T19:10:57.191Z,6.40
2022-08-24T19:13:42.777Z,7.07
2022-08-24T19:16:28.255Z,6.72
2022-08-24T19:19:13.913Z,7.53
2022-08-24T19:22:01.979Z,7.53
2022-08-24T19:24:47.598Z,6.55
2022-08-24T19:27:33.616Z,8.50
2022-08-24T19:30:19.015Z,7.78
2022-08-24T19:33:10.390Z,7.15
2022-08-24T19:35:59.298Z,7.45
2022-08-24T19:38:45.177Z,8.13
2022-08-24T19:41:36.712Z,6.68
2022-08-24T19:44:44.120Z,8.15
2022-08-24T19:47:38.011Z,7.43
2022-08-24T19:50:26.040Z,7.85
2022-08-24T19:53:14.037Z,7.82
2022-08-24T19:56:01.080Z,7.80
2022-08-24T19:59:08.124Z,8.23
2022-08-24T20:01:53.607Z,8.75
2022-08-24T20:04:38.935Z,7.45
2022-08-24T20:07:24.493Z,8.35
2022-08-24T20:10:12.394Z,8.48
2022-08-24T20:12:59.116Z,8.65
2022-08-24T20:15:44.875Z,8.95
2022-08-24T20:18:33.873Z,8.70
2022-08-24T20:21:20.137Z,8.85
2022-08-24T20:24:06.424Z,8.73
2022-08-24T20:26:51.952Z,8.43
2022-08-24T20:29:37.708Z,9.40
2022-08-24T20:32:23.473Z,9.13
2022-08-24T20:35:09.875Z,9.93
2022-08-24T20:37:56.547Z,8.77
2022-08-24T20:40:41.736Z,8.57
2022-08-24T20:43:28.189Z,9.05
2022-08-24T20:46:14.234Z,10.40
2022-08-24T20:48:59.946Z,9.80
2022-08-24T20:51:45.209Z,9.80
2022-08-24T20:54:33.122Z,10.30
2022-08-24T20:57:20.846Z,9.82
2022-08-24T21:00:09.262Z,9.60
2022-08-24T21:02:54.539Z,10.63
2022-08-24T21:05:39.721Z,10.57
2022-08-24T21:08:25.914Z,11.05
2022-08-24T21:11:11.350Z,10.50
2022-08-24T21:13:56.673Z,11.25
2022-08-24T21:16:43.482Z,10.27
2022-08-24T21:19:30.595Z,10.45
2022-08-24T21:22:16.272Z,10.15
2022-08-24T21:25:05.978Z,9.52
2022-08-24T21:27:51.193Z,10.48
2022-08-24T21:30:36.392Z,10.65
2022-08-24T21:33:40.326Z,9.07
2022-08-24T21:36:26.565Z,10.48
2022-08-24T21:39:11.957Z,10.57
2022-08-24T21:41:57.801Z,10.90
2022-08-24T21:44:43.278Z,10.40
2022-08-24T21:47:28.478Z,10.52
2022-08-24T21:50:15.474Z,10.95
2022-08-24T21:53:00.917Z,9.95
2022-08-24T21:55:46.841Z,10.70
2022-08-24T21:58:32.070Z,9.95
2022-08-24T22:01:18.029Z,10.00
2022-08-24T22:04:04.105Z,9.90
2022-08-24T22:06:49.908Z,10.80
2022-08-24T22:09:35.486Z,10.60
2022-08-24T22:12:24.297Z,10.93
2022-08-24T22:15:12.621Z,10.55
2022-08-24T22:17:57.660Z,10.77
2022-08-24T22:20:43.333Z,11.70
2022-08-24T22:23:28.896Z,11.30
2022-08-24T22:26:14.389Z,11.07
2022-08-24T22:29:00.999Z,11.15
2022-08-24T22:31:46.982Z,11.20
2022-08-24T22:34:32.692Z,11.15
2022-08-24T22:37:18.256Z,10.88
2022-08-24T22:40:05.841Z,11.43
2022-08-24T22:42:57.991Z,10.57
2022-08-24T22:45:43.534Z,10.63
2022-08-24T22:48:29.015Z,10.25
2022-08-24T22:51:14.965Z,10.63
2022-08-24T22:54:00.745Z,11.02
2022-08-24T22:56:50.090Z,11.00
2022-08-24T22:59:41.282Z,10.88
2022-08-24T23:02:26.952Z,11.27
2022-08-24T23:05:12.435Z,10.40
2022-08-24T23:07:57.795Z,10.48
2022-08-24T23:10:43.263Z,10.73
2022-08-24T23:13:29.065Z,10.48
2022-08-24T23:16:14.782Z,10.30
2022-08-24T23:19:19.096Z,11.40
2022-08-24T23:22:05.875Z,10.18
2022-08-24T23:24:51.263Z,12.82
2022-08-24T23:27:37.813Z,12.25
2022-08-24T23:30:24.036Z,13.32
2022-08-24T23:33:09.345Z,11.45
2022-08-24T23:35:55.030Z,13.20
2022-08-24T23:38:42.375Z,12.88
2022-08-24T23:41:33.195Z,12.90
2022-08-24T23:44:22.893Z,13.27
2022-08-24T23:47:08.440Z,12.88
2022-08-24T23:49:53.499Z,13.68
2022-08-24T23:52:39.424Z,13.20
2022-08-24T23:55:25.222Z,13.48
2022-08-24T23:58:10.381Z,13.63
